Meteo – Situazione

Stazione Meteo G.A.P.
Ultimo aggiornamento 2024-05-20 05:44:29 Z

Vento da (gradi)
Velocità del vento (Km/h)
Temperatura (C°)
Pressione Barometrica (hPa)
Umidità (%)
Visibilità (mt)
Copertura Nuvolosa (%)
Pioggia nelle ultime 3 ore (mm)
Neve nelle ultime 3 ore (cm)

METAR Aeroporti Vicini

Pratica di Mare

LIRE 200455Z 09002KT CAVOK 16/14 Q1009

Roma Fiumicino

LIRF 200520Z 08005KT 040V100 9000 NSC 17/16 Q1010 NOSIG

Roma Ciampino

LIRA 200520Z VRB02KT CAVOK 17/16 Q1010

Latina

LIRL 200455Z VRB03KT CAVOK 16/14 Q1010

Guidonia

LIRG 200455Z 02002KT CAVOK 15/15 Q1010

Roma Urbe

LIRU 191750Z VRB03KT 5000 RA SCT020 22/19 Q1009

Comments are closed.